sensor_id;sensor_type;location;lat;lon;timestamp;P1;durP1;ratioP1;P2;durP2;ratioP2
2053;SDS011;1032;52.542;13.440;2023-04-01T00:01:11;6.40;;;3.47;;
2053;SDS011;1032;52.542;13.440;2023-04-01T00:03:40;4.60;;;2.70;;
2053;SDS011;1032;52.542;13.440;2023-04-01T00:06:09;3.30;;;3.00;;
2053;SDS011;1032;52.542;13.440;2023-04-01T00:08:39;2.93;;;2.50;;
2053;SDS011;1032;52.542;13.440;2023-04-01T00:11:06;4.43;;;3.20;;
2053;SDS011;1032;52.542;13.440;2023-04-01T00:13:35;5.50;;;2.53;;
2053;SDS011;1032;52.542;13.440;2023-04-01T00:16:04;5.37;;;2.87;;
2053;SDS011;1032;52.542;13.440;2023-04-01T00:18:31;3.40;;;2.83;;
2053;SDS011;1032;52.542;13.440;2023-04-01T00:20:58;6.40;;;2.57;;
2053;SDS011;1032;52.542;13.440;2023-04-01T00:23:25;5.30;;;3.07;;
2053;SDS011;1032;52.542;13.440;2023-04-01T00:25:52;4.83;;;3.47;;
2053;SDS011;1032;52.542;13.440;2023-04-01T00:28:19;5.13;;;3.10;;
2053;SDS011;1032;52.542;13.440;2023-04-01T00:30:47;3.90;;;2.70;;
2053;SDS011;1032;52.542;13.440;2023-04-01T00:33:15;4.63;;;2.97;;
2053;SDS011;1032;52.542;13.440;2023-04-01T00:35:43;5.87;;;2.93;;
2053;SDS011;1032;52.542;13.440;2023-04-01T00:38:10;4.13;;;3.00;;
2053;SDS011;1032;52.542;13.440;2023-04-01T00:40:38;5.30;;;3.17;;
2053;SDS011;1032;52.542;13.440;2023-04-01T00:43:11;5.50;;;3.23;;
2053;SDS011;1032;52.542;13.440;2023-04-01T00:45:40;4.60;;;2.87;;
2053;SDS011;1032;52.542;13.440;2023-04-01T00:48:12;7.77;;;3.00;;
2053;SDS011;1032;52.542;13.440;2023-04-01T00:50:44;4.50;;;3.07;;
2053;SDS011;1032;52.542;13.440;2023-04-01T00:53:16;5.70;;;3.60;;
2053;SDS011;1032;52.542;13.440;2023-04-01T00:55:47;4.63;;;2.80;;
2053;SDS011;1032;52.542;13.440;2023-04-01T00:58:18;4.50;;;3.30;;
2053;SDS011;1032;52.542;13.440;2023-04-01T01:00:47;3.90;;;2.60;;
2053;SDS011;1032;52.542;13.440;2023-04-01T01:03:20;5.03;;;2.90;;
2053;SDS011;1032;52.542;13.440;2023-04-01T01:05:55;9.90;;;3.57;;
2053;SDS011;1032;52.542;13.440;2023-04-01T01:08:36;5.00;;;3.30;;
2053;SDS011;1032;52.542;13.440;2023-04-01T01:11:14;7.50;;;3.50;;
2053;SDS011;1032;52.542;13.440;2023-04-01T01:13:50;7.80;;;3.73;;
2053;SDS011;1032;52.542;13.440;2023-04-01T01:16:23;5.70;;;3.23;;
2053;SDS011;1032;52.542;13.440;2023-04-01T01:18:55;6.60;;;3.07;;
2053;SDS011;1032;52.542;13.440;2023-04-01T01:21:46;5.50;;;2.57;;
2053;SDS011;1032;52.542;13.440;2023-04-01T01:24:36;5.03;;;3.40;;
2053;SDS011;1032;52.542;13.440;2023-04-01T01:27:14;4.90;;;3.20;;
2053;SDS011;1032;52.542;13.440;2023-04-01T01:29:47;5.77;;;3.37;;
2053;SDS011;1032;52.542;13.440;2023-04-01T01:32:30;7.30;;;3.50;;
2053;SDS011;1032;52.542;13.440;2023-04-01T01:35:28;5.33;;;3.30;;
2053;SDS011;1032;52.542;13.440;2023-04-01T01:38:02;4.10;;;3.07;;
2053;SDS011;1032;52.542;13.440;2023-04-01T01:40:33;7.17;;;3.43;;
2053;SDS011;1032;52.542;13.440;2023-04-01T01:43:03;7.10;;;3.13;;
2053;SDS011;1032;52.542;13.440;2023-04-01T01:45:33;6.77;;;2.77;;
2053;SDS011;1032;52.542;13.440;2023-04-01T01:48:04;5.57;;;2.90;;
2053;SDS011;1032;52.542;13.440;2023-04-01T01:50:34;5.23;;;2.93;;
2053;SDS011;1032;52.542;13.440;2023-04-01T01:53:03;7.30;;;3.13;;
2053;SDS011;1032;52.542;13.440;2023-04-01T01:55:32;3.60;;;2.87;;
2053;SDS011;1032;52.542;13.440;2023-04-01T01:58:02;6.87;;;3.07;;
2053;SDS011;1032;52.542;13.440;2023-04-01T02:00:34;4.50;;;2.60;;
2053;SDS011;1032;52.542;13.440;2023-04-01T02:03:02;3.93;;;2.63;;
2053;SDS011;1032;52.542;13.440;2023-04-01T02:05:30;7.97;;;3.30;;
2053;SDS011;1032;52.542;13.440;2023-04-01T02:08:07;4.30;;;3.23;;
2053;SDS011;1032;52.542;13.440;2023-04-01T02:10:39;7.83;;;3.13;;
2053;SDS011;1032;52.542;13.440;2023-04-01T02:13:12;4.03;;;2.97;;
2053;SDS011;1032;52.542;13.440;2023-04-01T02:15:46;6.97;;;3.07;;
2053;SDS011;1032;52.542;13.440;2023-04-01T02:18:16;6.37;;;2.73;;
2053;SDS011;1032;52.542;13.440;2023-04-01T02:20:45;4.43;;;2.80;;
2053;SDS011;1032;52.542;13.440;2023-04-01T02:23:16;5.20;;;3.00;;
2053;SDS011;1032;52.542;13.440;2023-04-01T02:25:43;8.83;;;3.30;;
2053;SDS011;1032;52.542;13.440;2023-04-01T02:28:11;4.20;;;2.50;;
2053;SDS011;1032;52.542;13.440;2023-04-01T02:30:41;7.57;;;2.53;;
2053;SDS011;1032;52.542;13.440;2023-04-01T02:33:11;6.97;;;3.03;;
2053;SDS011;1032;52.542;13.440;2023-04-01T02:35:38;4.33;;;3.10;;
2053;SDS011;1032;52.542;13.440;2023-04-01T02:38:06;6.13;;;3.00;;
2053;SDS011;1032;52.542;13.440;2023-04-01T02:40:48;6.73;;;3.20;;
2053;SDS011;1032;52.542;13.440;2023-04-01T02:43:17;5.13;;;3.53;;
2053;SDS011;1032;52.542;13.440;2023-04-01T02:45:46;6.80;;;4.00;;
2053;SDS011;1032;52.542;13.440;2023-04-01T02:48:13;16.03;;;9.33;;
2053;SDS011;1032;52.542;13.440;2023-04-01T02:50:42;6.97;;;4.30;;
2053;SDS011;1032;52.542;13.440;2023-04-01T02:53:10;4.73;;;3.07;;
2053;SDS011;1032;52.542;13.440;2023-04-01T02:55:37;5.80;;;3.90;;
2053;SDS011;1032;52.542;13.440;2023-04-01T02:58:05;5.77;;;3.70;;
2053;SDS011;1032;52.542;13.440;2023-04-01T03:00:34;6.23;;;3.17;;
2053;SDS011;1032;52.542;13.440;2023-04-01T03:03:01;5.50;;;3.60;;
2053;SDS011;1032;52.542;13.440;2023-04-01T03:05:28;5.33;;;3.73;;
2053;SDS011;1032;52.542;13.440;2023-04-01T03:07:55;5.37;;;3.33;;
2053;SDS011;1032;52.542;13.440;2023-04-01T03:10:22;7.87;;;3.67;;
2053;SDS011;1032;52.542;13.440;2023-04-01T03:12:49;7.53;;;2.77;;
2053;SDS011;1032;52.542;13.440;2023-04-01T03:15:18;6.93;;;3.33;;
2053;SDS011;1032;52.542;13.440;2023-04-01T03:17:45;6.40;;;4.23;;
2053;SDS011;1032;52.542;13.440;2023-04-01T03:20:13;6.03;;;3.60;;
2053;SDS011;1032;52.542;13.440;2023-04-01T03:22:42;7.37;;;2.80;;
2053;SDS011;1032;52.542;13.440;2023-04-01T03:25:09;9.53;;;3.97;;
2053;SDS011;1032;52.542;13.440;2023-04-01T03:27:37;7.13;;;3.57;;
2053;SDS011;1032;52.542;13.440;2023-04-01T03:30:05;6.77;;;3.57;;
2053;SDS011;1032;52.542;13.440;2023-04-01T03:32:41;5.57;;;3.43;;
2053;SDS011;1032;52.542;13.440;2023-04-01T03:35:08;8.63;;;3.20;;
2053;SDS011;1032;52.542;13.440;2023-04-01T03:37:36;5.90;;;3.57;;
2053;SDS011;1032;52.542;13.440;2023-04-01T03:40:04;10.90;;;3.67;;
2053;SDS011;1032;52.542;13.440;2023-04-01T03:42:32;7.00;;;3.50;;
2053;SDS011;1032;52.542;13.440;2023-04-01T03:45:00;6.23;;;3.20;;
2053;SDS011;1032;52.542;13.440;2023-04-01T03:47:28;8.53;;;3.10;;
2053;SDS011;1032;52.542;13.440;2023-04-01T03:49:56;6.63;;;3.47;;
2053;SDS011;1032;52.542;13.440;2023-04-01T03:52:24;4.97;;;3.30;;
2053;SDS011;1032;52.542;13.440;2023-04-01T03:54:51;9.57;;;3.70;;
2053;SDS011;1032;52.542;13.440;2023-04-01T03:57:19;6.93;;;4.20;;
2053;SDS011;1032;52.542;13.440;2023-04-01T03:59:45;9.90;;;3.60;;
2053;SDS011;1032;52.542;13.440;2023-04-01T04:02:12;7.10;;;3.40;;
2053;SDS011;1032;52.542;13.440;2023-04-01T04:04:39;5.90;;;3.57;;
2053;SDS011;1032;52.542;13.440;2023-04-01T04:07:09;5.83;;;3.43;;
2053;SDS011;1032;52.542;13.440;2023-04-01T04:09:55;6.07;;;3.07;;
2053;SDS011;1032;52.542;13.440;2023-04-01T04:12:22;6.20;;;3.20;;
2053;SDS011;1032;52.542;13.440;2023-04-01T04:14:48;9.03;;;4.07;;
2053;SDS011;1032;52.542;13.440;2023-04-01T04:17:15;7.60;;;3.97;;
2053;SDS011;1032;52.542;13.440;2023-04-01T04:19:42;7.33;;;3.47;;
2053;SDS011;1032;52.542;13.440;2023-04-01T04:22:11;9.87;;;4.00;;
2053;SDS011;1032;52.542;13.440;2023-04-01T04:24:38;8.83;;;3.83;;
2053;SDS011;1032;52.542;13.440;2023-04-01T04:27:08;7.90;;;3.73;;
2053;SDS011;1032;52.542;13.440;2023-04-01T04:29:41;7.83;;;3.77;;
2053;SDS011;1032;52.542;13.440;2023-04-01T04:32:07;6.60;;;4.07;;
2053;SDS011;1032;52.542;13.440;2023-04-01T04:34:35;7.73;;;4.37;;
2053;SDS011;1032;52.542;13.440;2023-04-01T04:37:02;7.37;;;4.17;;
2053;SDS011;1032;52.542;13.440;2023-04-01T04:39:34;9.53;;;5.23;;
2053;SDS011;1032;52.542;13.440;2023-04-01T04:42:01;10.37;;;5.43;;
2053;SDS011;1032;52.542;13.440;2023-04-01T04:44:28;5.57;;;3.80;;
2053;SDS011;1032;52.542;13.440;2023-04-01T04:46:55;7.33;;;5.43;;
2053;SDS011;1032;52.542;13.440;2023-04-01T04:49:22;9.30;;;6.37;;
2053;SDS011;1032;52.542;13.440;2023-04-01T04:51:49;8.17;;;4.50;;
2053;SDS011;1032;52.542;13.440;2023-04-01T04:54:19;7.30;;;5.23;;
2053;SDS011;1032;52.542;13.440;2023-04-01T04:56:52;10.17;;;5.30;;
2053;SDS011;1032;52.542;13.440;2023-04-01T04:59:21;7.10;;;5.20;;
2053;SDS011;1032;52.542;13.440;2023-04-01T05:01:59;7.63;;;4.97;;
2053;SDS011;1032;52.542;13.440;2023-04-01T05:04:26;11.30;;;5.47;;
2053;SDS011;1032;52.542;13.440;2023-04-01T05:06:53;9.60;;;5.67;;
2053;SDS011;1032;52.542;13.440;2023-04-01T05:09:20;7.67;;;4.90;;
2053;SDS011;1032;52.542;13.440;2023-04-01T05:11:46;7.73;;;5.33;;
2053;SDS011;1032;52.542;13.440;2023-04-01T05:14:15;7.43;;;4.93;;
2053;SDS011;1032;52.542;13.440;2023-04-01T05:16:50;6.97;;;5.10;;
2053;SDS011;1032;52.542;13.440;2023-04-01T05:19:16;7.47;;;5.30;;
2053;SDS011;1032;52.542;13.440;2023-04-01T05:21:43;9.13;;;6.00;;
2053;SDS011;1032;52.542;13.440;2023-04-01T05:24:10;8.93;;;5.17;;
2053;SDS011;1032;52.542;13.440;2023-04-01T05:26:38;8.53;;;6.47;;
2053;SDS011;1032;52.542;13.440;2023-04-01T05:29:05;12.73;;;6.83;;
2053;SDS011;1032;52.542;13.440;2023-04-01T05:31:33;7.90;;;6.47;;
2053;SDS011;1032;52.542;13.440;2023-04-01T05:34:00;8.93;;;6.30;;
2053;SDS011;1032;52.542;13.440;2023-04-01T05:36:27;11.63;;;7.20;;
2053;SDS011;1032;52.542;13.440;2023-04-01T05:38:55;12.10;;;6.53;;
2053;SDS011;1032;52.542;13.440;2023-04-01T05:41:24;7.20;;;5.57;;
2053;SDS011;1032;52.542;13.440;2023-04-01T05:43:50;9.17;;;6.30;;
2053;SDS011;1032;52.542;13.440;2023-04-01T05:46:37;10.10;;;6.17;;
2053;SDS011;1032;52.542;13.440;2023-04-01T05:49:21;10.57;;;6.07;;
2053;SDS011;1032;52.542;13.440;2023-04-01T05:51:49;9.30;;;6.97;;
2053;SDS011;1032;52.542;13.440;2023-04-01T05:54:16;9.47;;;6.60;;
2053;SDS011;1032;52.542;13.440;2023-04-01T05:56:44;10.33;;;6.20;;
2053;SDS011;1032;52.542;13.440;2023-04-01T05:59:11;9.20;;;5.60;;
2053;SDS011;1032;52.542;13.440;2023-04-01T06:01:39;9.47;;;5.20;;
2053;SDS011;1032;52.542;13.440;2023-04-01T06:04:06;7.40;;;6.00;;
2053;SDS011;1032;52.542;13.440;2023-04-01T06:06:35;13.07;;;6.10;;
2053;SDS011;1032;52.542;13.440;2023-04-01T06:09:10;7.57;;;6.37;;
2053;SDS011;1032;52.542;13.440;2023-04-01T06:11:48;7.87;;;5.50;;
2053;SDS011;1032;52.542;13.440;2023-04-01T06:14:32;10.80;;;6.00;;
2053;SDS011;1032;52.542;13.440;2023-04-01T06:17:11;12.27;;;5.77;;
2053;SDS011;1032;52.542;13.440;2023-04-01T06:19:48;7.27;;;6.30;;
2053;SDS011;1032;52.542;13.440;2023-04-01T06:22:22;9.57;;;5.80;;
2053;SDS011;1032;52.542;13.440;2023-04-01T06:25:16;8.10;;;5.70;;
2053;SDS011;1032;52.542;13.440;2023-04-01T06:28:16;9.40;;;7.43;;
2053;SDS011;1032;52.542;13.440;2023-04-01T06:31:05;8.90;;;6.10;;
2053;SDS011;1032;52.542;13.440;2023-04-01T06:33:48;8.90;;;6.50;;
2053;SDS011;1032;52.542;13.440;2023-04-01T06:36:32;7.40;;;5.90;;
2053;SDS011;1032;52.542;13.440;2023-04-01T06:39:12;13.23;;;6.67;;
2053;SDS011;1032;52.542;13.440;2023-04-01T06:42:06;12.43;;;7.70;;
2053;SDS011;1032;52.542;13.440;2023-04-01T06:44:49;9.47;;;6.20;;
2053;SDS011;1032;52.542;13.440;2023-04-01T06:47:46;15.57;;;6.40;;
2053;SDS011;1032;52.542;13.440;2023-04-01T06:50:44;6.50;;;5.20;;
2053;SDS011;1032;52.542;13.440;2023-04-01T06:53:37;9.93;;;5.33;;
2053;SDS011;1032;52.542;13.440;2023-04-01T06:56:31;7.50;;;5.90;;
2053;SDS011;1032;52.542;13.440;2023-04-01T06:59:08;7.83;;;5.67;;
2053;SDS011;1032;52.542;13.440;2023-04-01T07:01:39;7.97;;;6.10;;
2053;SDS011;1032;52.542;13.440;2023-04-01T07:04:09;7.63;;;5.30;;
2053;SDS011;1032;52.542;13.440;2023-04-01T07:06:42;9.97;;;5.53;;
2053;SDS011;1032;52.542;13.440;2023-04-01T07:09:14;8.83;;;5.93;;
2053;SDS011;1032;52.542;13.440;2023-04-01T07:12:06;7.63;;;5.50;;
2053;SDS011;1032;52.542;13.440;2023-04-01T07:15:00;15.07;;;11.47;;
2053;SDS011;1032;52.542;13.440;2023-04-01T07:17:36;9.17;;;6.67;;
2053;SDS011;1032;52.542;13.440;2023-04-01T07:20:08;7.20;;;5.97;;
2053;SDS011;1032;52.542;13.440;2023-04-01T07:22:43;8.23;;;6.30;;
2053;SDS011;1032;52.542;13.440;2023-04-01T07:25:33;10.60;;;5.60;;
2053;SDS011;1032;52.542;13.440;2023-04-01T07:28:22;6.80;;;5.57;;
2053;SDS011;1032;52.542;13.440;2023-04-01T07:31:00;9.47;;;5.90;;
2053;SDS011;1032;52.542;13.440;2023-04-01T07:33:36;5.93;;;5.27;;
2053;SDS011;1032;52.542;13.440;2023-04-01T07:36:10;9.50;;;5.27;;
2053;SDS011;1032;52.542;13.440;2023-04-01T07:38:50;7.90;;;6.17;;
2053;SDS011;1032;52.542;13.440;2023-04-01T07:41:48;6.30;;;5.13;;
2053;SDS011;1032;52.542;13.440;2023-04-01T07:44:24;6.50;;;4.53;;
2053;SDS011;1032;52.542;13.440;2023-04-01T07:47:01;8.60;;;5.07;;
2053;SDS011;1032;52.542;13.440;2023-04-01T07:49:40;6.30;;;4.63;;
2053;SDS011;1032;52.542;13.440;2023-04-01T07:52:19;8.53;;;5.37;;
2053;SDS011;1032;52.542;13.440;2023-04-01T07:55:00;7.53;;;6.30;;
2053;SDS011;1032;52.542;13.440;2023-04-01T07:57:34;8.07;;;6.47;;
2053;SDS011;1032;52.542;13.440;2023-04-01T08:00:09;7.60;;;6.60;;
2053;SDS011;1032;52.542;13.440;2023-04-01T08:03:04;7.83;;;5.70;;
2053;SDS011;1032;52.542;13.440;2023-04-01T08:05:46;6.87;;;5.27;;
2053;SDS011;1032;52.542;13.440;2023-04-01T08:08:20;5.10;;;4.20;;
2053;SDS011;1032;52.542;13.440;2023-04-01T08:11:16;4.77;;;3.73;;
2053;SDS011;1032;52.542;13.440;2023-04-01T08:14:11;5.03;;;3.20;;
2053;SDS011;1032;52.542;13.440;2023-04-01T08:17:05;3.10;;;2.47;;
2053;SDS011;1032;52.542;13.440;2023-04-01T08:19:46;3.30;;;3.00;;
2053;SDS011;1032;52.542;13.440;2023-04-01T08:22:26;5.00;;;4.20;;
2053;SDS011;1032;52.542;13.440;2023-04-01T08:24:59;6.47;;;4.93;;
2053;SDS011;1032;52.542;13.440;2023-04-01T08:27:33;6.80;;;4.73;;
2053;SDS011;1032;52.542;13.440;2023-04-01T08:30:06;6.93;;;5.23;;
2053;SDS011;1032;52.542;13.440;2023-04-01T08:32:44;6.97;;;5.60;;
2053;SDS011;1032;52.542;13.440;2023-04-01T08:35:18;7.40;;;6.13;;
2053;SDS011;1032;52.542;13.440;2023-04-01T08:37:53;7.00;;;6.17;;
2053;SDS011;1032;52.542;13.440;2023-04-01T08:43:50;8.20;;;6.70;;
2053;SDS011;1032;52.542;13.440;2023-04-01T08:46:45;8.17;;;7.33;;
2053;SDS011;1032;52.542;13.440;2023-04-01T08:49:36;10.03;;;8.93;;
2053;SDS011;1032;52.542;13.440;2023-04-01T08:52:35;11.43;;;9.93;;
2053;SDS011;1032;52.542;13.440;2023-04-01T08:58:11;12.50;;;10.43;;
2053;SDS011;1032;52.542;13.440;2023-04-01T09:01:16;10.03;;;9.03;;
2053;SDS011;1032;52.542;13.440;2023-04-01T09:06:48;11.47;;;10.37;;
2053;SDS011;1032;52.542;13.440;2023-04-01T09:09:32;11.10;;;10.00;;
2053;SDS011;1032;52.542;13.440;2023-04-01T09:12:25;9.93;;;8.90;;
2053;SDS011;1032;52.542;13.440;2023-04-01T09:15:16;9.23;;;8.27;;
2053;SDS011;1032;52.542;13.440;2023-04-01T09:21:02;9.10;;;8.20;;
2053;SDS011;1032;52.542;13.440;2023-04-01T09:23:58;9.10;;;8.20;;
2053;SDS011;1032;52.542;13.440;2023-04-01T09:26:44;10.43;;;8.13;;
2053;SDS011;1032;52.542;13.440;2023-04-01T09:29:25;10.60;;;9.50;;
2053;SDS011;1032;52.542;13.440;2023-04-01T09:32:12;10.60;;;9.50;;
2053;SDS011;1032;52.542;13.440;2023-04-01T09:35:19;10.90;;;9.90;;
2053;SDS011;1032;52.542;13.440;2023-04-01T09:37:57;11.70;;;10.60;;
2053;SDS011;1032;52.542;13.440;2023-04-01T09:40:34;11.70;;;10.50;;
2053;SDS011;1032;52.542;13.440;2023-04-01T09:43:16;10.63;;;9.40;;
2053;SDS011;1032;52.542;13.440;2023-04-01T09:45:58;10.90;;;9.90;;
2053;SDS011;1032;52.542;13.440;2023-04-01T09:48:53;11.87;;;10.77;;
2053;SDS011;1032;52.542;13.440;2023-04-01T09:51:39;10.60;;;9.60;;
2053;SDS011;1032;52.542;13.440;2023-04-01T09:54:20;11.77;;;10.77;;
2053;SDS011;1032;52.542;13.440;2023-04-01T09:57:06;11.40;;;10.40;;
2053;SDS011;1032;52.542;13.440;2023-04-01T10:03:33;10.80;;;9.80;;
2053;SDS011;1032;52.542;13.440;2023-04-01T10:06:25;10.97;;;9.97;;
2053;SDS011;1032;52.542;13.440;2023-04-01T10:09:15;10.10;;;9.20;;
2053;SDS011;1032;52.542;13.440;2023-04-01T10:12:17;11.00;;;10.10;;
2053;SDS011;1032;52.542;13.440;2023-04-01T10:15:09;10.30;;;9.40;;
2053;SDS011;1032;52.542;13.440;2023-04-01T10:18:08;10.70;;;9.70;;
2053;SDS011;1032;52.542;13.440;2023-04-01T10:20:54;12.37;;;11.27;;
2053;SDS011;1032;52.542;13.440;2023-04-01T10:26:43;11.23;;;9.10;;
2053;SDS011;1032;52.542;13.440;2023-04-01T10:29:53;11.50;;;10.40;;
2053;SDS011;1032;52.542;13.440;2023-04-01T10:35:51;10.50;;;9.50;;
2053;SDS011;1032;52.542;13.440;2023-04-01T10:41:59;10.73;;;9.73;;
2053;SDS011;1032;52.542;13.440;2023-04-01T10:45:26;11.97;;;10.97;;
2053;SDS011;1032;52.542;13.440;2023-04-01T10:55:19;12.40;;;11.10;;
2053;SDS011;1032;52.542;13.440;2023-04-01T11:05:26;10.50;;;9.60;;
2053;SDS011;1032;52.542;13.440;2023-04-01T11:08:28;11.00;;;10.00;;
2053;SDS011;1032;52.542;13.440;2023-04-01T11:11:28;10.73;;;9.63;;
2053;SDS011;1032;52.542;13.440;2023-04-01T11:14:34;9.90;;;9.10;;
2053;SDS011;1032;52.542;13.440;2023-04-01T11:17:34;10.27;;;9.17;;
2053;SDS011;1032;52.542;13.440;2023-04-01T11:20:38;9.80;;;8.73;;
2053;SDS011;1032;52.542;13.440;2023-04-01T11:23:29;9.57;;;8.77;;
2053;SDS011;1032;52.542;13.440;2023-04-01T11:26:12;8.20;;;7.50;;
2053;SDS011;1032;52.542;13.440;2023-04-01T11:32:34;6.63;;;6.03;;
2053;SDS011;1032;52.542;13.440;2023-04-01T11:35:17;4.10;;;3.70;;
2053;SDS011;1032;52.542;13.440;2023-04-01T11:37:57;4.67;;;4.27;;
2053;SDS011;1032;52.542;13.440;2023-04-01T11:40:45;4.70;;;4.30;;
2053;SDS011;1032;52.542;13.440;2023-04-01T11:43:37;5.40;;;4.30;;
2053;SDS011;1032;52.542;13.440;2023-04-01T11:46:30;6.37;;;3.93;;
2053;SDS011;1032;52.542;13.440;2023-04-01T11:49:07;4.83;;;4.37;;
2053;SDS011;1032;52.542;13.440;2023-04-01T11:55:11;5.13;;;4.60;;
2053;SDS011;1032;52.542;13.440;2023-04-01T11:58:08;7.67;;;6.97;;
2053;SDS011;1032;52.542;13.440;2023-04-01T12:04:11;11.70;;;10.63;;
2053;SDS011;1032;52.542;13.440;2023-04-01T12:06:54;12.10;;;11.10;;
2053;SDS011;1032;52.542;13.440;2023-04-01T12:09:30;12.00;;;11.00;;
2053;SDS011;1032;52.542;13.440;2023-04-01T12:12:11;11.57;;;10.57;;
2053;SDS011;1032;52.542;13.440;2023-04-01T12:14:45;11.63;;;10.63;;
2053;SDS011;1032;52.542;13.440;2023-04-01T12:17:25;11.70;;;10.70;;
2053;SDS011;1032;52.542;13.440;2023-04-01T12:20:01;11.07;;;9.97;;
2053;SDS011;1032;52.542;13.440;2023-04-01T12:22:48;9.17;;;8.47;;
2053;SDS011;1032;52.542;13.440;2023-04-01T12:25:34;10.67;;;9.67;;
2053;SDS011;1032;52.542;13.440;2023-04-01T12:28:14;9.77;;;8.83;;
2053;SDS011;1032;52.542;13.440;2023-04-01T12:30:50;8.40;;;7.53;;
2053;SDS011;1032;52.542;13.440;2023-04-01T12:33:35;8.47;;;7.67;;
2053;SDS011;1032;52.542;13.440;2023-04-01T12:36:15;8.30;;;7.50;;
2053;SDS011;1032;52.542;13.440;2023-04-01T12:38:58;9.80;;;8.80;;
2053;SDS011;1032;52.542;13.440;2023-04-01T12:41:45;10.17;;;9.27;;
2053;SDS011;1032;52.542;13.440;2023-04-01T12:44:23;9.23;;;8.40;;
2053;SDS011;1032;52.542;13.440;2023-04-01T12:47:04;10.23;;;8.93;;
2053;SDS011;1032;52.542;13.440;2023-04-01T12:50:08;9.37;;;8.50;;
2053;SDS011;1032;52.542;13.440;2023-04-01T12:52:54;13.80;;;12.40;;
2053;SDS011;1032;52.542;13.440;2023-04-01T12:55:37;15.90;;;14.43;;
2053;SDS011;1032;52.542;13.440;2023-04-01T12:58:15;15.63;;;14.10;;
2053;SDS011;1032;52.542;13.440;2023-04-01T13:01:04;13.30;;;12.17;;
2053;SDS011;1032;52.542;13.440;2023-04-01T13:03:45;14.47;;;13.27;;
2053;SDS011;1032;52.542;13.440;2023-04-01T13:06:25;15.10;;;13.60;;
2053;SDS011;1032;52.542;13.440;2023-04-01T13:09:11;14.90;;;13.40;;
2053;SDS011;1032;52.542;13.440;2023-04-01T13:11:55;12.97;;;11.80;;
2053;SDS011;1032;52.542;13.440;2023-04-01T13:14:44;13.97;;;12.77;;
2053;SDS011;1032;52.542;13.440;2023-04-01T13:17:22;13.50;;;12.20;;
2053;SDS011;1032;52.542;13.440;2023-04-01T13:19:55;14.20;;;13.00;;
2053;SDS011;1032;52.542;13.440;2023-04-01T13:22:29;13.07;;;11.97;;
2053;SDS011;1032;52.542;13.440;2023-04-01T13:25:06;12.37;;;11.27;;
2053;SDS011;1032;52.542;13.440;2023-04-01T13:27:43;12.40;;;11.30;;
2053;SDS011;1032;52.542;13.440;2023-04-01T13:30:18;11.70;;;10.67;;
2053;SDS011;1032;52.542;13.440;2023-04-01T13:32:53;12.10;;;11.00;;
2053;SDS011;1032;52.542;13.440;2023-04-01T13:35:30;12.33;;;11.23;;
2053;SDS011;1032;52.542;13.440;2023-04-01T13:38:08;13.13;;;11.00;;
2053;SDS011;1032;52.542;13.440;2023-04-01T13:40:52;11.97;;;10.83;;
2053;SDS011;1032;52.542;13.440;2023-04-01T13:43:28;10.20;;;9.40;;
2053;SDS011;1032;52.542;13.440;2023-04-01T13:46:06;10.57;;;9.57;;
2053;SDS011;1032;52.542;13.440;2023-04-01T13:48:48;9.53;;;8.63;;
2053;SDS011;1032;52.542;13.440;2023-04-01T13:51:28;9.90;;;8.90;;
2053;SDS011;1032;52.542;13.440;2023-04-01T13:57:11;9.50;;;8.70;;
2053;SDS011;1032;52.542;13.440;2023-04-01T13:59:57;9.57;;;8.77;;
2053;SDS011;1032;52.542;13.440;2023-04-01T14:02:49;9.30;;;8.50;;
2053;SDS011;1032;52.542;13.440;2023-04-01T14:05:25;9.70;;;8.57;;
2053;SDS011;1032;52.542;13.440;2023-04-01T14:08:04;9.53;;;8.63;;
2053;SDS011;1032;52.542;13.440;2023-04-01T14:10:40;8.87;;;8.07;;
2053;SDS011;1032;52.542;13.440;2023-04-01T14:13:13;8.43;;;7.73;;
2053;SDS011;1032;52.542;13.440;2023-04-01T14:15:58;8.80;;;8.00;;
2053;SDS011;1032;52.542;13.440;2023-04-01T14:18:33;8.30;;;7.50;;
2053;SDS011;1032;52.542;13.440;2023-04-01T14:21:13;7.90;;;7.10;;
2053;SDS011;1032;52.542;13.440;2023-04-01T14:23:50;8.53;;;7.73;;
2053;SDS011;1032;52.542;13.440;2023-04-01T14:26:35;8.47;;;7.77;;
2053;SDS011;1032;52.542;13.440;2023-04-01T14:29:32;8.03;;;7.23;;
2053;SDS011;1032;52.542;13.440;2023-04-01T14:32:07;7.00;;;6.50;;
2053;SDS011;1032;52.542;13.440;2023-04-01T14:34:45;6.80;;;6.20;;
2053;SDS011;1032;52.542;13.440;2023-04-01T14:37:28;7.40;;;6.70;;
2053;SDS011;1032;52.542;13.440;2023-04-01T14:45:47;8.43;;;7.73;;
2053;SDS011;1032;52.542;13.440;2023-04-01T14:48:28;8.70;;;7.93;;
2053;SDS011;1032;52.542;13.440;2023-04-01T14:51:02;8.83;;;8.03;;
2053;SDS011;1032;52.542;13.440;2023-04-01T14:53:34;8.17;;;7.47;;
2053;SDS011;1032;52.542;13.440;2023-04-01T14:56:06;6.90;;;6.30;;
2053;SDS011;1032;52.542;13.440;2023-04-01T14:58:41;7.30;;;6.70;;
2053;SDS011;1032;52.542;13.440;2023-04-01T15:01:17;7.33;;;6.63;;
2053;SDS011;1032;52.542;13.440;2023-04-01T15:03:55;8.97;;;8.17;;
2053;SDS011;1032;52.542;13.440;2023-04-01T15:06:34;7.70;;;7.00;;
2053;SDS011;1032;52.542;13.440;2023-04-01T15:09:13;9.30;;;8.50;;
2053;SDS011;1032;52.542;13.440;2023-04-01T15:11:52;10.60;;;8.17;;
2053;SDS011;1032;52.542;13.440;2023-04-01T15:14:30;6.30;;;5.70;;
2053;SDS011;1032;52.542;13.440;2023-04-01T15:17:26;6.97;;;5.93;;
2053;SDS011;1032;52.542;13.440;2023-04-01T15:23:25;7.63;;;6.93;;
2053;SDS011;1032;52.542;13.440;2023-04-01T15:26:11;7.07;;;6.47;;
2053;SDS011;1032;52.542;13.440;2023-04-01T15:28:46;9.20;;;7.10;;
2053;SDS011;1032;52.542;13.440;2023-04-01T15:31:22;7.07;;;6.47;;
2053;SDS011;1032;52.542;13.440;2023-04-01T15:34:00;7.97;;;7.20;;
2053;SDS011;1032;52.542;13.440;2023-04-01T15:36:42;9.67;;;6.80;;
2053;SDS011;1032;52.542;13.440;2023-04-01T15:39:13;9.23;;;6.87;;
2053;SDS011;1032;52.542;13.440;2023-04-01T15:41:43;8.87;;;6.77;;
2053;SDS011;1032;52.542;13.440;2023-04-01T15:44:27;7.20;;;6.50;;
2053;SDS011;1032;52.542;13.440;2023-04-01T15:47:08;14.70;;;7.90;;
2053;SDS011;1032;52.542;13.440;2023-04-01T15:50:03;8.73;;;7.93;;
2053;SDS011;1032;52.542;13.440;2023-04-01T15:52:49;8.07;;;7.37;;
2053;SDS011;1032;52.542;13.440;2023-04-01T15:55:24;8.50;;;7.80;;
2053;SDS011;1032;52.542;13.440;2023-04-01T15:58:00;8.77;;;7.87;;
2053;SDS011;1032;52.542;13.440;2023-04-01T16:00:42;9.10;;;7.60;;
2053;SDS011;1032;52.542;13.440;2023-04-01T16:03:15;8.90;;;8.10;;
2053;SDS011;1032;52.542;13.440;2023-04-01T16:05:54;14.10;;;8.20;;
2053;SDS011;1032;52.542;13.440;2023-04-01T16:11:38;6.40;;;5.80;;
2053;SDS011;1032;52.542;13.440;2023-04-01T16:14:19;7.10;;;6.30;;
2053;SDS011;1032;52.542;13.440;2023-04-01T16:17:00;6.63;;;6.03;;
2053;SDS011;1032;52.542;13.440;2023-04-01T16:19:44;6.87;;;6.17;;
2053;SDS011;1032;52.542;13.440;2023-04-01T16:22:20;6.50;;;5.90;;
2053;SDS011;1032;52.542;13.440;2023-04-01T16:24:52;8.10;;;6.60;;
2053;SDS011;1032;52.542;13.440;2023-04-01T16:27:24;10.27;;;6.73;;
2053;SDS011;1032;52.542;13.440;2023-04-01T16:29:56;7.93;;;6.13;;
2053;SDS011;1032;52.542;13.440;2023-04-01T16:32:31;6.50;;;5.90;;
2053;SDS011;1032;52.542;13.440;2023-04-01T16:35:14;6.57;;;5.53;;
2053;SDS011;1032;52.542;13.440;2023-04-01T16:38:01;8.13;;;6.37;;
2053;SDS011;1032;52.542;13.440;2023-04-01T16:40:37;7.50;;;6.70;;
2053;SDS011;1032;52.542;13.440;2023-04-01T16:43:11;7.40;;;5.17;;
2053;SDS011;1032;52.542;13.440;2023-04-01T16:45:45;6.30;;;5.70;;
2053;SDS011;1032;52.542;13.440;2023-04-01T16:48:20;6.13;;;5.50;;
2053;SDS011;1032;52.542;13.440;2023-04-01T16:50:53;5.57;;;4.80;;
2053;SDS011;1032;52.542;13.440;2023-04-01T16:53:30;7.10;;;6.33;;
2053;SDS011;1032;52.542;13.440;2023-04-01T16:56:07;6.00;;;5.40;;
2053;SDS011;1032;52.542;13.440;2023-04-01T16:58:39;6.10;;;5.50;;
2053;SDS011;1032;52.542;13.440;2023-04-01T17:01:11;6.20;;;5.50;;
2053;SDS011;1032;52.542;13.440;2023-04-01T17:03:41;6.80;;;5.60;;